Time;durP1;ratioP1;P1;durP2;ratioP2;P2;SDS_P1;SDS_P2;PMS_P1;PMS_P2;Temp;Humidity;BMP_temperature;BMP_pressure;BME280_temperature;BME280_humidity;BME280_pressure;Samples;Min_cycle;Max_cycle;Signal;HPM_P1;HPM_P2
2020/12/19 00:01:28;;;;;;;;;;;16.20;59.80;;;;;;5038691;28;20350;-60
2020/12/19 00:03:54;;;;;;;;;;;16.20;60.30;;;;;;5048150;28;19916;-59
2020/12/19 00:06:19;;;;;;;;;;;16.10;59.40;;;;;;5042814;28;19912;-59
2020/12/19 00:08:45;;;;;;;;;;;16.10;59.40;;;;;;5049183;28;19915;-60
2020/12/19 00:11:10;;;;;;;;;;;16.10;59.80;;;;;;5071441;28;19923;-60
2020/12/19 00:13:35;;;;;;;;;;;16.10;59.70;;;;;;5064833;28;19912;-60
2020/12/19 00:16:01;;;;;;;;;;;16.10;60.00;;;;;;5049591;28;19908;-59
2020/12/19 00:18:26;;;;;;;;;;;16.10;60.60;;;;;;5040760;28;20392;-60
2020/12/19 00:20:52;;;;;;;;;;;16.00;60.30;;;;;;5032425;28;19905;-60
2020/12/19 00:23:18;;;;;;;;;;;16.00;60.20;;;;;;5049976;28;20388;-60
2020/12/19 00:25:44;;;;;;;;;;;16.00;60.80;;;;;;5036849;28;19916;-59
2020/12/19 00:28:09;;;;;;;;;;;16.00;61.10;;;;;;5027988;28;19909;-59
2020/12/19 00:30:34;;;;;;;;;;;16.00;60.60;;;;;;5027268;28;20000;-59
2020/12/19 00:33:00;;;;;;;;;;;16.00;60.50;;;;;;5053823;28;19991;-59
2020/12/19 00:35:25;;;;;;;;;;;16.00;61.00;;;;;;5036522;28;19960;-60
2020/12/19 00:37:51;;;;;;;;;;;16.00;60.90;;;;;;5030391;28;19909;-60
2020/12/19 00:40:16;;;;;;;;;;;16.00;60.90;;;;;;5040188;28;20419;-61
2020/12/19 00:42:42;;;;;;;;;;;16.00;61.00;;;;;;5038369;28;19995;-60
2020/12/19 00:45:08;;;;;;;;;;;16.00;60.80;;;;;;5050670;28;19916;-60
2020/12/19 00:47:34;;;;;;;;;;;16.00;61.10;;;;;;5046939;28;19905;-60
2020/12/19 00:50:00;;;;;;;;;;;16.00;61.70;;;;;;5048451;28;19905;-60
2020/12/19 00:52:25;;;;;;;;;;;16.10;61.60;;;;;;5031254;28;19905;-60
2020/12/19 00:54:50;;;;;;;;;;;16.00;61.60;;;;;;5046397;28;19931;-60
2020/12/19 00:57:16;;;;;;;;;;;16.00;62.00;;;;;;5048623;28;19920;-59
2020/12/19 00:59:41;;;;;;;;;;;16.00;61.60;;;;;;5030349;28;19909;-60
2020/12/19 01:02:07;;;;;;;;;;;16.10;61.60;;;;;;5046967;28;19916;-60
2020/12/19 01:04:32;;;;;;;;;;;16.10;61.40;;;;;;5018412;28;19913;-60
2020/12/19 01:06:57;;;;;;;;;;;16.00;62.30;;;;;;5053903;28;19909;-60
2020/12/19 01:09:23;;;;;;;;;;;16.00;61.70;;;;;;5048277;28;19909;-60
2020/12/19 01:11:48;;;;;;;;;;;16.00;61.70;;;;;;5032615;28;19909;-60
2020/12/19 01:14:14;;;;;;;;;;;16.00;61.70;;;;;;5019937;28;20012;-60
2020/12/19 01:16:39;;;;;;;;;;;16.10;62.10;;;;;;5013266;28;20357;-59
2020/12/19 01:19:05;;;;;;;;;;;16.10;62.30;;;;;;5023865;28;19908;-59
2020/12/19 01:21:31;;;;;;;;;;;16.10;62.70;;;;;;5054531;28;19988;-60
2020/12/19 01:23:56;;;;;;;;;;;16.20;62.40;;;;;;5056073;28;19909;-60
2020/12/19 01:26:22;;;;;;;;;;;16.20;62.30;;;;;;5042678;28;19916;-60
2020/12/19 01:28:47;;;;;;;;;;;16.20;62.00;;;;;;5049319;28;20470;-60
2020/12/19 01:31:14;;;;;;;;;;;16.20;61.70;;;;;;5042473;28;19963;-59
2020/12/19 01:33:40;;;;;;;;;;;16.20;61.80;;;;;;5038915;28;19912;-59
2020/12/19 01:36:13;;;;;;;;;;;16.20;61.70;;;;;;5038473;28;19943;-59
2020/12/19 01:38:38;;;;;;;;;;;16.20;61.60;;;;;;5037466;28;19917;-59
2020/12/19 01:41:04;;;;;;;;;;;16.20;61.80;;;;;;5027826;28;19908;-59
2020/12/19 01:43:43;;;;;;;;;;;16.20;61.80;;;;;;5050665;28;19971;-60
2020/12/19 01:46:09;;;;;;;;;;;16.20;62.00;;;;;;5043150;28;19963;-59
2020/12/19 01:48:35;;;;;;;;;;;16.20;62.30;;;;;;5047048;28;20397;-59
2020/12/19 01:51:00;;;;;;;;;;;16.20;62.40;;;;;;5047063;28;19962;-59
2020/12/19 01:53:26;;;;;;;;;;;16.20;61.90;;;;;;5039250;28;19996;-59
2020/12/19 01:55:52;;;;;;;;;;;16.20;62.10;;;;;;5045758;28;19908;-59
2020/12/19 01:58:17;;;;;;;;;;;16.20;62.00;;;;;;5047345;28;19920;-59
2020/12/19 02:00:43;;;;;;;;;;;16.20;61.80;;;;;;5066173;28;19908;-60
2020/12/19 02:03:08;;;;;;;;;;;16.10;62.10;;;;;;5047831;28;19950;-60
2020/12/19 02:05:40;;;;;;;;;;;16.20;62.40;;;;;;5057486;28;19982;-59
2020/12/19 02:08:06;;;;;;;;;;;16.10;61.90;;;;;;5034936;28;19914;-60
2020/12/19 02:10:32;;;;;;;;;;;16.10;62.50;;;;;;5035806;28;19913;-59
2020/12/19 02:13:01;;;;;;;;;;;16.10;62.10;;;;;;5041265;28;19970;-58
2020/12/19 02:15:27;;;;;;;;;;;16.10;61.80;;;;;;5040114;28;19913;-60
2020/12/19 02:17:52;;;;;;;;;;;16.00;61.70;;;;;;5033444;28;19916;-59
2020/12/19 02:20:18;;;;;;;;;;;16.00;61.80;;;;;;5037233;28;20353;-59
2020/12/19 02:22:44;;;;;;;;;;;16.00;62.00;;;;;;5016760;28;19905;-60
2020/12/19 02:25:09;;;;;;;;;;;16.00;62.10;;;;;;5041985;28;19909;-60
2020/12/19 02:27:35;;;;;;;;;;;16.00;62.10;;;;;;5035658;28;19909;-58
2020/12/19 02:30:00;;;;;;;;;;;15.90;61.20;;;;;;5045333;28;19928;-60
2020/12/19 02:32:26;;;;;;;;;;;15.90;61.40;;;;;;5041570;28;19908;-60
2020/12/19 02:34:51;;;;;;;;;;;15.90;61.10;;;;;;5042511;28;19969;-59
2020/12/19 02:37:16;;;;;;;;;;;15.90;61.40;;;;;;5036092;28;20270;-59
2020/12/19 02:39:42;;;;;;;;;;;15.90;60.70;;;;;;5052474;28;19912;-59
2020/12/19 02:42:07;;;;;;;;;;;15.80;60.60;;;;;;5041846;28;19916;-59
2020/12/19 02:44:33;;;;;;;;;;;15.80;60.90;;;;;;5054538;28;20404;-59
2020/12/19 02:46:59;;;;;;;;;;;15.80;60.80;;;;;;5043100;28;20356;-59
2020/12/19 02:49:24;;;;;;;;;;;15.70;60.80;;;;;;5035376;28;20004;-60
2020/12/19 02:51:50;;;;;;;;;;;15.70;60.90;;;;;;5049504;28;19954;-58
2020/12/19 02:54:15;;;;;;;;;;;15.70;61.10;;;;;;5035625;28;19916;-58
2020/12/19 02:56:41;;;;;;;;;;;15.70;61.00;;;;;;5046935;28;20538;-59
2020/12/19 02:59:06;;;;;;;;;;;15.70;61.00;;;;;;5040632;28;20348;-59
2020/12/19 03:01:32;;;;;;;;;;;15.70;60.80;;;;;;5050280;28;20321;-62
2020/12/19 03:03:58;;;;;;;;;;;15.70;61.50;;;;;;5039491;28;19912;-58
2020/12/19 03:06:24;;;;;;;;;;;15.60;61.00;;;;;;5053779;28;19909;-59
2020/12/19 03:09:04;;;;;;;;;;;15.60;61.30;;;;;;5060503;28;19915;-59
2020/12/19 03:11:29;;;;;;;;;;;15.60;61.80;;;;;;5054047;28;19911;-59
2020/12/19 03:13:55;;;;;;;;;;;15.60;61.60;;;;;;5034559;28;19913;-60
2020/12/19 03:16:20;;;;;;;;;;;15.60;61.40;;;;;;5041831;28;19909;-59
2020/12/19 03:18:46;;;;;;;;;;;15.60;62.00;;;;;;5045591;28;20338;-59
2020/12/19 03:21:11;;;;;;;;;;;15.60;62.20;;;;;;5035566;28;19905;-60
2020/12/19 03:23:37;;;;;;;;;;;15.60;61.80;;;;;;5047565;28;20049;-59
2020/12/19 03:26:02;;;;;;;;;;;15.60;62.30;;;;;;5034983;28;19924;-59
2020/12/19 03:28:28;;;;;;;;;;;15.60;61.70;;;;;;5052987;28;19915;-59
2020/12/19 03:30:53;;;;;;;;;;;15.60;62.10;;;;;;5053655;28;20285;-59
2020/12/19 03:33:18;;;;;;;;;;;15.70;62.40;;;;;;5021406;28;19913;-59
2020/12/19 03:35:44;;;;;;;;;;;15.70;62.20;;;;;;5035056;28;20336;-59
2020/12/19 03:38:09;;;;;;;;;;;15.70;62.50;;;;;;5029581;28;20322;-59
2020/12/19 03:40:35;;;;;;;;;;;15.70;63.10;;;;;;5052822;28;19904;-59
2020/12/19 03:43:00;;;;;;;;;;;15.70;62.50;;;;;;5051296;28;19911;-60
2020/12/19 03:45:26;;;;;;;;;;;15.80;62.60;;;;;;5044591;28;19916;-59
2020/12/19 03:47:51;;;;;;;;;;;15.80;62.80;;;;;;5069320;28;19908;-58
2020/12/19 03:50:17;;;;;;;;;;;15.80;62.50;;;;;;5072849;28;19904;-59
2020/12/19 03:52:42;;;;;;;;;;;15.80;62.40;;;;;;5055322;28;19913;-59
2020/12/19 03:55:08;;;;;;;;;;;15.80;62.40;;;;;;5050269;28;20000;-59
2020/12/19 03:57:33;;;;;;;;;;;15.80;62.60;;;;;;5038997;28;19955;-59
2020/12/19 03:59:58;;;;;;;;;;;15.80;62.60;;;;;;5034919;28;19916;-59
2020/12/19 04:02:24;;;;;;;;;;;15.80;62.40;;;;;;5033787;28;19917;-59
2020/12/19 04:04:49;;;;;;;;;;;15.70;62.20;;;;;;5045136;28;20007;-60
2020/12/19 04:07:15;;;;;;;;;;;15.70;62.60;;;;;;5041668;28;20296;-59
2020/12/19 04:09:40;;;;;;;;;;;15.70;62.50;;;;;;5032774;28;20388;-59
2020/12/19 04:12:06;;;;;;;;;;;15.70;62.60;;;;;;5038609;28;19909;-60
2020/12/19 04:14:37;;;;;;;;;;;15.70;62.60;;;;;;5032124;28;19909;-59
2020/12/19 04:17:07;;;;;;;;;;;15.70;62.70;;;;;;5037176;28;19913;-60
2020/12/19 04:19:33;;;;;;;;;;;15.60;62.90;;;;;;5043483;28;19919;-59
2020/12/19 04:21:58;;;;;;;;;;;15.70;63.30;;;;;;5038449;28;20359;-59
2020/12/19 04:24:24;;;;;;;;;;;15.70;62.90;;;;;;5050801;28;19909;-60
2020/12/19 04:26:49;;;;;;;;;;;15.70;63.00;;;;;;5048530;28;19913;-60
2020/12/19 04:29:15;;;;;;;;;;;15.70;63.10;;;;;;5041735;28;19954;-60
2020/12/19 04:31:40;;;;;;;;;;;15.70;62.70;;;;;;5034757;28;19912;-59
2020/12/19 04:34:05;;;;;;;;;;;15.70;63.00;;;;;;5051676;28;20003;-59
2020/12/19 04:36:31;;;;;;;;;;;15.70;62.60;;;;;;5064594;28;19908;-59
2020/12/19 04:38:56;;;;;;;;;;;15.70;62.60;;;;;;5050065;28;19920;-59
2020/12/19 04:41:22;;;;;;;;;;;15.70;62.60;;;;;;5044974;28;19925;-59
2020/12/19 04:43:47;;;;;;;;;;;15.70;62.10;;;;;;5031524;28;19905;-59
2020/12/19 04:46:15;;;;;;;;;;;15.70;62.40;;;;;;5030515;28;19905;-59
2020/12/19 04:48:41;;;;;;;;;;;15.70;62.50;;;;;;5049236;28;19913;-59
2020/12/19 04:51:06;;;;;;;;;;;15.70;62.70;;;;;;5052434;28;20388;-59
2020/12/19 04:53:32;;;;;;;;;;;15.70;63.10;;;;;;5046990;28;19912;-59
2020/12/19 04:55:59;;;;;;;;;;;15.70;63.00;;;;;;5030743;28;19924;-61
2020/12/19 04:58:24;;;;;;;;;;;15.70;62.80;;;;;;5044278;28;19912;-61
2020/12/19 05:00:50;;;;;;;;;;;15.70;62.40;;;;;;5048413;28;20356;-61
2020/12/19 05:03:15;;;;;;;;;;;15.70;62.40;;;;;;5035856;28;20287;-61
2020/12/19 05:05:41;;;;;;;;;;;15.70;62.60;;;;;;5049445;28;20321;-61
2020/12/19 05:08:07;;;;;;;;;;;15.70;62.90;;;;;;5058954;28;19912;-61
2020/12/19 05:10:33;;;;;;;;;;;15.70;62.70;;;;;;5031282;28;19936;-61
2020/12/19 05:12:58;;;;;;;;;;;15.70;62.80;;;;;;5028749;28;20333;-60
2020/12/19 05:15:23;;;;;;;;;;;15.70;62.70;;;;;;5050837;28;20365;-61
2020/12/19 05:17:53;;;;;;;;;;;15.60;62.50;;;;;;5039800;28;19909;-61
2020/12/19 05:20:22;;;;;;;;;;;15.60;62.50;;;;;;5031051;28;20332;-62
2020/12/19 05:22:51;;;;;;;;;;;15.60;62.60;;;;;;5019805;28;19913;-59
2020/12/19 05:25:20;;;;;;;;;;;15.60;62.20;;;;;;5008112;28;20360;-59
2020/12/19 05:27:47;;;;;;;;;;;15.60;62.60;;;;;;5038575;28;19912;-61
2020/12/19 05:30:13;;;;;;;;;;;15.60;62.00;;;;;;5029565;28;19913;-61
2020/12/19 05:32:46;;;;;;;;;;;15.50;62.20;;;;;;5037267;28;19924;-59
2020/12/19 05:35:12;;;;;;;;;;;15.50;62.70;;;;;;5002323;28;19916;-61
2020/12/19 05:37:38;;;;;;;;;;;15.50;62.20;;;;;;5014119;28;20392;-61
2020/12/19 05:40:08;;;;;;;;;;;15.40;62.30;;;;;;5010461;28;19996;-59
2020/12/19 05:42:35;;;;;;;;;;;15.40;62.50;;;;;;5031549;28;20312;-61
2020/12/19 05:45:00;;;;;;;;;;;15.40;62.20;;;;;;5029981;28;19959;-60
2020/12/19 05:47:26;;;;;;;;;;;15.30;62.10;;;;;;5031392;28;19920;-59
2020/12/19 05:49:51;;;;;;;;;;;15.40;62.20;;;;;;5019590;28;19924;-59
2020/12/19 05:52:19;;;;;;;;;;;15.30;62.50;;;;;;5029958;28;19923;-59
2020/12/19 05:54:45;;;;;;;;;;;15.30;62.00;;;;;;5031427;28;20394;-59
2020/12/19 05:57:12;;;;;;;;;;;15.30;62.10;;;;;;5030667;28;19988;-58
2020/12/19 05:59:38;;;;;;;;;;;15.30;61.90;;;;;;5010203;28;20404;-59
2020/12/19 06:02:04;;;;;;;;;;;15.20;61.90;;;;;;5025380;28;19913;-58
2020/12/19 06:04:30;;;;;;;;;;;15.30;62.30;;;;;;5011868;28;19913;-59
2020/12/19 06:06:56;;;;;;;;;;;15.20;61.90;;;;;;5048982;28;19908;-58
2020/12/19 06:09:23;;;;;;;;;;;15.20;62.30;;;;;;5015062;28;19913;-59
2020/12/19 06:11:51;;;;;;;;;;;15.20;62.00;;;;;;5039527;28;19988;-58
2020/12/19 06:14:21;;;;;;;;;;;15.10;62.00;;;;;;5035954;28;19928;-58
2020/12/19 06:16:48;;;;;;;;;;;15.10;62.50;;;;;;5030808;28;19955;-58
2020/12/19 06:19:21;;;;;;;;;;;15.10;62.30;;;;;;5013628;28;19911;-57
2020/12/19 06:21:48;;;;;;;;;;;15.10;62.30;;;;;;5029704;28;19909;-59
2020/12/19 06:24:32;;;;;;;;;;;15.10;62.50;;;;;;5034269;28;20690;-59
2020/12/19 06:26:58;;;;;;;;;;;15.10;62.50;;;;;;5039597;28;19909;-61
2020/12/19 06:29:36;;;;;;;;;;;15.10;62.80;;;;;;5042474;28;19909;-60
2020/12/19 06:32:02;;;;;;;;;;;15.10;63.30;;;;;;5040921;28;19920;-59
2020/12/19 06:34:27;;;;;;;;;;;15.10;63.00;;;;;;5019709;28;19913;-59
2020/12/19 06:36:55;;;;;;;;;;;15.10;63.30;;;;;;5016835;28;20006;-59
2020/12/19 06:39:20;;;;;;;;;;;15.20;63.90;;;;;;5036511;28;19998;-59
2020/12/19 06:41:49;;;;;;;;;;;15.20;63.00;;;;;;5045696;28;20319;-60
2020/12/19 06:44:27;;;;;;;;;;;15.30;63.10;;;;;;5040240;28;19909;-57
2020/12/19 06:46:53;;;;;;;;;;;15.30;64.50;;;;;;5028122;28;19916;-59
2020/12/19 06:49:22;;;;;;;;;;;15.30;63.90;;;;;;5054247;28;20265;-59
2020/12/19 06:51:59;;;;;;;;;;;15.30;63.00;;;;;;5034073;28;19905;-60
2020/12/19 06:54:28;;;;;;;;;;;15.20;63.00;;;;;;5064135;28;19913;-62
2020/12/19 06:56:54;;;;;;;;;;;15.20;63.30;;;;;;5055037;28;19913;-62
2020/12/19 06:59:26;;;;;;;;;;;15.20;63.10;;;;;;5073876;28;19915;-60
2020/12/19 07:01:51;;;;;;;;;;;15.20;63.10;;;;;;5043702;28;19904;-62
2020/12/19 07:04:33;;;;;;;;;;;15.20;63.10;;;;;;5033563;28;19905;-59
2020/12/19 07:07:05;;;;;;;;;;;15.20;62.80;;;;;;5047430;28;19920;-57
2020/12/19 07:09:31;;;;;;;;;;;15.10;62.90;;;;;;5045886;28;20289;-62
2020/12/19 07:11:56;;;;;;;;;;;15.10;63.10;;;;;;5043716;28;19909;-60
2020/12/19 07:14:22;;;;;;;;;;;15.10;62.90;;;;;;5050820;28;19912;-60
2020/12/19 07:16:52;;;;;;;;;;;15.10;63.10;;;;;;5050031;28;19909;-59
2020/12/19 07:19:21;;;;;;;;;;;15.10;63.60;;;;;;5038007;28;19905;-60
2020/12/19 07:21:47;;;;;;;;;;;15.10;63.80;;;;;;5058285;28;19908;-59
2020/12/19 07:24:13;;;;;;;;;;;15.20;63.00;;;;;;5053540;28;19969;-59
2020/12/19 07:26:38;;;;;;;;;;;15.20;63.10;;;;;;5046696;28;19909;-59
2020/12/19 07:29:20;;;;;;;;;;;15.20;63.40;;;;;;5071834;28;19909;-59
2020/12/19 07:31:46;;;;;;;;;;;15.20;63.20;;;;;;5052867;28;20354;-62
2020/12/19 07:34:12;;;;;;;;;;;15.20;62.80;;;;;;5052799;28;20519;-59
2020/12/19 07:36:39;;;;;;;;;;;15.10;62.90;;;;;;5061691;28;19911;-59
2020/12/19 07:39:05;;;;;;;;;;;15.10;63.50;;;;;;5062992;28;19912;-59
2020/12/19 07:41:30;;;;;;;;;;;15.10;62.90;;;;;;5052890;28;20393;-60
2020/12/19 07:44:06;;;;;;;;;;;15.10;63.20;;;;;;5050952;28;19904;-60
2020/12/19 07:46:31;;;;;;;;;;;15.10;63.60;;;;;;5072779;28;19917;-60
2020/12/19 07:48:57;;;;;;;;;;;15.20;63.90;;;;;;5072953;28;19905;-60
2020/12/19 07:51:22;;;;;;;;;;;15.20;64.30;;;;;;5062685;28;19909;-59
2020/12/19 07:53:47;;;;;;;;;;;15.20;63.60;;;;;;5051021;28;20300;-59
2020/12/19 07:56:13;;;;;;;;;;;15.30;63.90;;;;;;5045340;28;20291;-60
2020/12/19 07:58:39;;;;;;;;;;;15.20;63.40;;;;;;5054414;28;19912;-60
2020/12/19 08:01:05;;;;;;;;;;;15.30;63.60;;;;;;5056384;28;20384;-61
2020/12/19 08:03:30;;;;;;;;;;;15.30;64.00;;;;;;5044048;28;19932;-59
2020/12/19 08:05:56;;;;;;;;;;;15.40;64.10;;;;;;5050273;28;19954;-58
2020/12/19 08:08:21;;;;;;;;;;;15.40;64.10;;;;;;5053455;28;19905;-59
2020/12/19 08:10:46;;;;;;;;;;;15.40;64.00;;;;;;5054580;28;19962;-59
2020/12/19 08:13:12;;;;;;;;;;;15.50;64.10;;;;;;5061074;28;20007;-59
2020/12/19 08:15:38;;;;;;;;;;;15.50;64.00;;;;;;5072387;28;19912;-58
2020/12/19 08:18:06;;;;;;;;;;;15.60;63.90;;;;;;5062856;28;19916;-59
2020/12/19 08:20:36;;;;;;;;;;;15.60;63.80;;;;;;5029570;28;20000;-59
2020/12/19 08:23:08;;;;;;;;;;;15.70;63.60;;;;;;5046908;28;19909;-58
2020/12/19 08:25:34;;;;;;;;;;;15.70;63.40;;;;;;5040302;28;19994;-60
2020/12/19 08:28:00;;;;;;;;;;;15.80;63.50;;;;;;5039676;28;19956;-59
2020/12/19 08:30:27;;;;;;;;;;;15.90;63.30;;;;;;5051099;28;19908;-59
2020/12/19 08:32:58;;;;;;;;;;;15.90;63.10;;;;;;5033324;28;19913;-59
2020/12/19 08:35:25;;;;;;;;;;;16.00;63.00;;;;;;5051799;28;19913;-60
2020/12/19 08:38:00;;;;;;;;;;;16.00;62.90;;;;;;5043432;28;20451;-60
2020/12/19 08:40:30;;;;;;;;;;;16.10;62.80;;;;;;5045644;28;20289;-59
2020/12/19 08:42:56;;;;;;;;;;;16.20;62.50;;;;;;5049793;28;19970;-59
2020/12/19 08:45:23;;;;;;;;;;;16.30;62.30;;;;;;5053455;28;19909;-60
2020/12/19 08:48:02;;;;;;;;;;;16.30;62.10;;;;;;5071681;28;19952;-60
2020/12/19 08:50:32;;;;;;;;;;;16.50;62.30;;;;;;5054082;28;19908;-60
2020/12/19 08:53:08;;;;;;;;;;;16.70;62.60;;;;;;5035344;28;19921;-59
2020/12/19 08:55:33;;;;;;;;;;;16.80;61.90;;;;;;5043506;28;20051;-60
2020/12/19 08:57:59;;;;;;;;;;;16.90;61.40;;;;;;5045438;28;20024;-59
2020/12/19 09:00:30;;;;;;;;;;;17.00;61.20;;;;;;5035885;28;19975;-62
2020/12/19 09:02:56;;;;;;;;;;;17.20;61.10;;;;;;5033726;28;20365;-59
2020/12/19 09:05:31;;;;;;;;;;;17.30;60.80;;;;;;5053627;28;19962;-59
2020/12/19 09:07:57;;;;;;;;;;;17.30;60.70;;;;;;5040988;28;19908;-59
2020/12/19 09:10:24;;;;;;;;;;;17.40;60.30;;;;;;5052597;28;20270;-59
2020/12/19 09:13:09;;;;;;;;;;;17.60;60.40;;;;;;5046411;28;19908;-60
2020/12/19 09:15:34;;;;;;;;;;;17.70;60.10;;;;;;5044841;28;20007;-60
2020/12/19 09:18:19;;;;;;;;;;;17.80;59.60;;;;;;5040900;28;19948;-60
2020/12/19 09:20:45;;;;;;;;;;;17.90;59.80;;;;;;5052288;28;19908;-59
2020/12/19 09:23:11;;;;;;;;;;;18.00;59.50;;;;;;5050934;28;20355;-59
2020/12/19 09:25:37;;;;;;;;;;;18.10;59.90;;;;;;5051350;28;19916;-60
2020/12/19 09:28:03;;;;;;;;;;;18.10;59.50;;;;;;5051035;28;20392;-59
2020/12/19 09:30:28;;;;;;;;;;;18.20;59.30;;;;;;5068547;28;20007;-60
2020/12/19 09:32:57;;;;;;;;;;;18.30;59.30;;;;;;5070014;28;19912;-60
2020/12/19 09:35:23;;;;;;;;;;;18.30;59.50;;;;;;5070803;28;19913;-59
2020/12/19 09:37:49;;;;;;;;;;;18.40;59.10;;;;;;5043429;28;19979;-60
2020/12/19 09:40:14;;;;;;;;;;;18.50;59.30;;;;;;5065564;28;19917;-60
2020/12/19 09:42:40;;;;;;;;;;;18.50;58.90;;;;;;5047737;28;19957;-60
2020/12/19 09:45:05;;;;;;;;;;;18.60;58.50;;;;;;5050399;28;19958;-60
2020/12/19 09:47:31;;;;;;;;;;;18.60;58.60;;;;;;5050846;28;19905;-60
2020/12/19 09:49:56;;;;;;;;;;;18.70;58.40;;;;;;5032978;28;20002;-60
2020/12/19 09:52:21;;;;;;;;;;;18.80;58.50;;;;;;5050688;28;19967;-60
2020/12/19 09:54:47;;;;;;;;;;;18.80;58.00;;;;;;5032529;28;19920;-60
2020/12/19 09:57:12;;;;;;;;;;;18.90;57.60;;;;;;5055554;28;19920;-59
2020/12/19 09:59:38;;;;;;;;;;;19.00;57.50;;;;;;5050660;28;19966;-60
2020/12/19 10:02:03;;;;;;;;;;;19.00;58.00;;;;;;5050666;28;19912;-60
2020/12/19 10:04:29;;;;;;;;;;;19.10;57.50;;;;;;5050215;28;19988;-59
2020/12/19 10:06:54;;;;;;;;;;;19.10;57.30;;;;;;5056799;28;20435;-59
2020/12/19 10:09:19;;;;;;;;;;;19.20;56.70;;;;;;5057603;28;20373;-59
2020/12/19 10:11:45;;;;;;;;;;;19.20;57.30;;;;;;5050592;28;20384;-60
2020/12/19 10:14:10;;;;;;;;;;;19.30;56.90;;;;;;5057337;28;19955;-59
2020/12/19 10:16:36;;;;;;;;;;;19.30;55.70;;;;;;5055525;28;19909;-60
2020/12/19 10:19:01;;;;;;;;;;;19.40;56.30;;;;;;5052338;28;19943;-59
2020/12/19 10:21:27;;;;;;;;;;;19.40;56.80;;;;;;5067993;28;19911;-58
2020/12/19 10:23:52;;;;;;;;;;;19.40;56.80;;;;;;5055055;28;19912;-59
2020/12/19 10:26:20;;;;;;;;;;;19.50;56.40;;;;;;5054027;28;19904;-60
2020/12/19 10:28:45;;;;;;;;;;;19.60;56.30;;;;;;5047546;28;19909;-60
2020/12/19 10:31:11;;;;;;;;;;;19.60;55.80;;;;;;5054320;28;19958;-60
2020/12/19 10:33:36;;;;;;;;;;;19.60;56.20;;;;;;5058219;28;19909;-59
2020/12/19 10:36:02;;;;;;;;;;;19.70;56.10;;;;;;5064567;28;19909;-59
2020/12/19 10:38:27;;;;;;;;;;;19.70;55.50;;;;;;5037111;28;20388;-60
2020/12/19 10:40:52;;;;;;;;;;;19.80;55.40;;;;;;5048861;28;19935;-60
2020/12/19 10:43:18;;;;;;;;;;;19.80;55.80;;;;;;5036600;28;19904;-59
2020/12/19 10:45:44;;;;;;;;;;;19.90;55.50;;;;;;5053802;28;19911;-59
2020/12/19 10:48:10;;;;;;;;;;;19.90;53.50;;;;;;5059258;28;19908;-59
2020/12/19 10:50:35;;;;;;;;;;;19.90;55.00;;;;;;5069321;28;19912;-57
2020/12/19 10:53:00;;;;;;;;;;;20.00;55.30;;;;;;5073479;28;19915;-58
2020/12/19 10:55:26;;;;;;;;;;;20.00;55.00;;;;;;5073327;28;19908;-59
2020/12/19 10:57:51;;;;;;;;;;;20.00;54.70;;;;;;5055657;28;19912;-59
2020/12/19 11:00:17;;;;;;;;;;;20.00;54.80;;;;;;5055737;28;19905;-59
2020/12/19 11:02:42;;;;;;;;;;;20.10;54.90;;;;;;5055625;28;19909;-59
2020/12/19 11:05:08;;;;;;;;;;;20.10;55.00;;;;;;5071235;28;19916;-60
2020/12/19 11:07:33;;;;;;;;;;;20.10;53.80;;;;;;5064197;28;19912;-58
2020/12/19 11:09:58;;;;;;;;;;;20.00;52.10;;;;;;5056045;28;20003;-60
2020/12/19 11:12:24;;;;;;;;;;;20.00;54.60;;;;;;5053421;28;20009;-59
2020/12/19 11:14:49;;;;;;;;;;;20.10;54.20;;;;;;5053076;28;19916;-59
2020/12/19 11:17:15;;;;;;;;;;;20.00;54.00;;;;;;5053555;28;20389;-58
2020/12/19 11:19:40;;;;;;;;;;;20.10;54.30;;;;;;5053549;28;20265;-60
2020/12/19 11:22:06;;;;;;;;;;;20.10;54.20;;;;;;5053507;28;19908;-60
2020/12/19 11:24:31;;;;;;;;;;;20.10;54.30;;;;;;5034985;28;19917;-59
2020/12/19 11:26:56;;;;;;;;;;;20.20;54.30;;;;;;5053306;28;19931;-60
2020/12/19 11:29:22;;;;;;;;;;;20.20;54.20;;;;;;5052937;28;20392;-59
2020/12/19 11:31:48;;;;;;;;;;;20.20;54.20;;;;;;5052868;28;19909;-60
2020/12/19 11:34:14;;;;;;;;;;;20.20;54.00;;;;;;5052216;28;20011;-59
2020/12/19 11:36:40;;;;;;;;;;;20.20;53.70;;;;;;5053145;28;19959;-59
2020/12/19 11:39:09;;;;;;;;;;;20.20;53.90;;;;;;5053082;28;19915;-60
2020/12/19 11:41:34;;;;;;;;;;;20.20;53.80;;;;;;5053105;28;19966;-60
2020/12/19 11:44:00;;;;;;;;;;;20.20;53.80;;;;;;5052730;28;20384;-60
2020/12/19 11:46:25;;;;;;;;;;;20.20;53.70;;;;;;5055913;28;20046;-59
2020/12/19 11:48:50;;;;;;;;;;;20.20;53.40;;;;;;5072846;28;20320;-60
2020/12/19 11:51:16;;;;;;;;;;;20.20;53.50;;;;;;5072834;28;19958;-59
2020/12/19 11:53:41;;;;;;;;;;;20.20;53.50;;;;;;5072414;28;19915;-60
2020/12/19 11:56:07;;;;;;;;;;;20.10;53.80;;;;;;5072907;28;19916;-60
2020/12/19 11:58:33;;;;;;;;;;;20.10;53.50;;;;;;5065894;28;19923;-59
2020/12/19 12:00:58;;;;;;;;;;;20.10;53.20;;;;;;5054040;28;20350;-59
2020/12/19 12:03:24;;;;;;;;;;;20.10;53.50;;;;;;5057807;28;19908;-56
2020/12/19 12:05:49;;;;;;;;;;;20.10;53.40;;;;;;5068011;28;20292;-59
2020/12/19 12:08:15;;;;;;;;;;;20.10;53.70;;;;;;5059844;28;20467;-60
2020/12/19 12:10:41;;;;;;;;;;;20.10;53.50;;;;;;5036907;28;19913;-58
2020/12/19 12:13:07;;;;;;;;;;;20.10;54.00;;;;;;5058914;28;19908;-59
2020/12/19 12:15:32;;;;;;;;;;;20.10;53.40;;;;;;5047573;28;20011;-59
2020/12/19 12:17:58;;;;;;;;;;;20.10;53.20;;;;;;5039456;28;19959;-59
2020/12/19 12:20:23;;;;;;;;;;;20.10;53.10;;;;;;5031410;28;19913;-59
2020/12/19 12:22:49;;;;;;;;;;;20.10;53.30;;;;;;5050447;28;19934;-59
2020/12/19 12:25:14;;;;;;;;;;;20.10;53.90;;;;;;5025274;28;20380;-59
2020/12/19 12:27:39;;;;;;;;;;;20.10;54.10;;;;;;5050018;28;19909;-58
2020/12/19 12:30:05;;;;;;;;;;;20.10;53.40;;;;;;5051302;28;19959;-59
2020/12/19 12:32:31;;;;;;;;;;;20.10;53.40;;;;;;5042575;28;19946;-59
2020/12/19 12:34:56;;;;;;;;;;;20.00;52.90;;;;;;5050046;28;19913;-59
2020/12/19 12:37:22;;;;;;;;;;;20.00;53.40;;;;;;5041524;28;19909;-57
2020/12/19 12:39:47;;;;;;;;;;;20.00;53.00;;;;;;5052288;28;20349;-59
2020/12/19 12:42:13;;;;;;;;;;;20.00;52.20;;;;;;5068052;28;19943;-59
2020/12/19 12:44:38;;;;;;;;;;;20.00;53.20;;;;;;5043232;28;20301;-60
2020/12/19 12:47:04;;;;;;;;;;;19.90;54.00;;;;;;5053517;28;19943;-60
2020/12/19 12:49:30;;;;;;;;;;;19.90;53.10;;;;;;5023817;28;19955;-60
2020/12/19 12:51:56;;;;;;;;;;;19.90;53.80;;;;;;5028019;28;19908;-59
2020/12/19 12:54:21;;;;;;;;;;;19.90;54.00;;;;;;5032521;28;19948;-59
2020/12/19 12:56:47;;;;;;;;;;;19.80;53.30;;;;;;5060055;28;19919;-60
2020/12/19 12:59:12;;;;;;;;;;;19.80;54.30;;;;;;5068301;28;19913;-59
2020/12/19 13:01:38;;;;;;;;;;;19.80;53.70;;;;;;5048505;28;19912;-60
2020/12/19 13:04:03;;;;;;;;;;;19.80;54.70;;;;;;5040270;28;20343;-59
2020/12/19 13:06:29;;;;;;;;;;;19.80;53.90;;;;;;5051370;28;19954;-60
2020/12/19 13:08:54;;;;;;;;;;;19.70;53.80;;;;;;5050966;28;19952;-59
2020/12/19 13:11:20;;;;;;;;;;;19.80;54.10;;;;;;5056339;28;20002;-60
2020/12/19 13:13:47;;;;;;;;;;;19.80;54.00;;;;;;5053458;28;19958;-59
2020/12/19 13:16:13;;;;;;;;;;;19.70;54.40;;;;;;5050689;28;20388;-59
2020/12/19 13:18:38;;;;;;;;;;;19.70;54.40;;;;;;5041136;28;20003;-59
2020/12/19 13:21:04;;;;;;;;;;;19.70;53.90;;;;;;5034724;28;19987;-59
2020/12/19 13:23:29;;;;;;;;;;;19.60;54.30;;;;;;5041637;28;19924;-58
2020/12/19 13:25:55;;;;;;;;;;;19.60;53.10;;;;;;5042484;28;19916;-60
2020/12/19 13:28:20;;;;;;;;;;;19.60;52.40;;;;;;5031937;28;19983;-60
2020/12/19 13:30:46;;;;;;;;;;;19.50;52.80;;;;;;5038965;28;19931;-58
2020/12/19 13:33:11;;;;;;;;;;;19.40;53.20;;;;;;5033427;28;19913;-58
2020/12/19 13:35:36;;;;;;;;;;;19.30;53.60;;;;;;5035796;28;19916;-58
2020/12/19 13:38:02;;;;;;;;;;;19.30;54.00;;;;;;5027324;28;19916;-59
2020/12/19 13:40:27;;;;;;;;;;;19.30;54.60;;;;;;5021468;28;19912;-59
2020/12/19 13:42:53;;;;;;;;;;;19.20;54.80;;;;;;5039129;28;20349;-58
2020/12/19 13:45:19;;;;;;;;;;;19.20;54.00;;;;;;5037576;28;19915;-60
2020/12/19 13:47:44;;;;;;;;;;;19.20;54.50;;;;;;5036391;28;19978;-60
2020/12/19 13:50:10;;;;;;;;;;;19.10;55.40;;;;;;5033697;28;19916;-59
2020/12/19 13:52:37;;;;;;;;;;;19.10;55.30;;;;;;5040758;28;19957;-60
2020/12/19 13:55:03;;;;;;;;;;;19.10;53.40;;;;;;5036530;28;19920;-59
2020/12/19 13:57:28;;;;;;;;;;;19.00;55.40;;;;;;5044319;28;19916;-58
2020/12/19 13:59:55;;;;;;;;;;;19.00;55.70;;;;;;5034644;28;20354;-59
2020/12/19 14:02:20;;;;;;;;;;;18.90;56.10;;;;;;5026197;28;19992;-59
2020/12/19 14:04:46;;;;;;;;;;;19.00;56.60;;;;;;5023975;28;20613;-60
2020/12/19 14:07:12;;;;;;;;;;;18.90;55.90;;;;;;5034718;28;19912;-59
2020/12/19 14:09:37;;;;;;;;;;;18.90;56.80;;;;;;5040750;28;19995;-59
2020/12/19 14:12:03;;;;;;;;;;;18.90;56.70;;;;;;5046908;28;20003;-59